Montague Village, Texas
Current Conditions -  °F | °C
As of 7:56 AM on Wednesday 26 Nov 2014 (Local Time) from KHLR Reporting Station
Clear Clear  
Wind Chill: 51°   Ceiling: Unl
Heat Index: 51°   Visibility: 10mi
Dew Point: 27°   Wind: 8mph
Humidity: 39%   Direction: 230°SW
Pressure: 30.15"   Gusts: NA
Location:  31.2151°N, 97.7405°W
Report Text: KHLR 261356Z AUTO 23007KT 10SM CLR 11/M03 A3015 RMK AO2 SLP243 T01061028 $
Loading
Personal Weather Stations






























Interactive Weather Map New forecast layout! Learn more

10-Day Weather Forecast

Advertisements
Track Severe Weather on mobile